Terminal Aerodrome Forecast
Issued by NWS

Home | Current Version | Previous Version | Text Only | Print | Product List | Glossary On
Versions: 1 2 3 4 5 6 7 8 9 10 11 12 13 14 15 16 17 18 19 20 21 22 23 24 25 26 27 28 29 30 31 32 33
000
FTUS43 KLOT 292200 AAB
TAFORD
TAF AMD
KORD 292204Z 2922/3024 30010G15KT P6SM VCSH SCT050
     FM300200 29005KT P6SM FEW050 SCT150
     FM301400 30007KT P6SM SCT150
     FM302000 30009KT P6SM VCSH BKN045=

USA.gov is the U.S. government's official web portal to all federal, state and local government web resources and services.